createdAt,value
2018-10-12T00:13:52.750Z,8.76
2018-10-12T00:13:52.945Z,7.69
2018-10-12T00:13:52.952Z,7.69
2018-10-12T00:13:53.014Z,7.69
2018-10-12T00:19:47.740Z,7.87
2018-10-12T00:25:42.719Z,8.06
2018-10-12T00:31:37.725Z,9.36
2018-10-12T00:37:32.770Z,9.77
2018-10-12T00:43:27.819Z,11.62
2018-10-12T00:49:22.753Z,8.97
2018-10-12T00:55:17.815Z,7.12
2018-10-12T01:01:12.791Z,8.97
2018-10-12T01:07:07.818Z,11.11
2018-10-12T01:13:02.775Z,8.5
2018-10-12T01:18:57.733Z,11.6
2018-10-12T01:24:52.735Z,10.12
2018-10-12T01:30:47.750Z,10.59
2018-10-12T01:36:42.781Z,12.36
2018-10-12T01:42:37.776Z,11.08
2018-10-12T01:48:32.759Z,10.02
2018-10-12T01:54:27.787Z,11.47
2018-10-12T02:00:22.737Z,12.5
2018-10-12T02:06:17.773Z,13.79
2018-10-12T02:12:12.758Z,15.91
2018-10-12T02:18:07.762Z,17.48
2018-10-12T02:24:02.775Z,21.56
2018-10-12T02:29:57.784Z,18.59
2018-10-12T02:35:52.764Z,21.55
2018-10-12T02:41:47.760Z,20.08
2018-10-12T02:47:42.814Z,27
2018-10-12T02:53:37.775Z,22.44
2018-10-12T03:17:17.807Z,25.01
2018-10-12T03:17:17.988Z,23.31
2018-10-12T03:17:17.993Z,23.31
2018-10-12T03:17:18.033Z,23.31
2018-10-12T03:23:12.774Z,20.85
2018-10-12T03:29:07.775Z,23.2
2018-10-12T03:35:02.817Z,27.47
2018-10-12T03:40:57.823Z,24.86
2018-10-12T03:46:52.799Z,29.56
2018-10-12T03:52:47.816Z,26.9
2018-10-12T03:58:42.904Z,27
2018-10-12T04:04:37.809Z,25.85
2018-10-12T04:10:32.802Z,23.14
2018-10-12T04:16:27.856Z,25.7
2018-10-12T04:22:22.780Z,24.77
2018-10-12T04:28:17.854Z,24.96
2018-10-12T04:34:12.791Z,22.97
2018-10-12T04:40:07.900Z,25.78
2018-10-12T04:46:02.891Z,19.05
2018-10-12T04:51:57.831Z,17.17
2018-10-12T04:57:52.794Z,19.26
2018-10-12T05:03:47.816Z,20.93
2018-10-12T05:09:42.819Z,22.07
2018-10-12T05:15:37.866Z,20.84
2018-10-12T05:21:32.810Z,21.74
2018-10-12T05:27:27.880Z,24.28
2018-10-12T05:33:22.821Z,23.12
2018-10-12T05:39:17.818Z,25.53
2018-10-12T05:45:12.853Z,23.52
2018-10-12T05:51:07.840Z,27.24
2018-10-12T06:14:47.853Z,20.57
2018-10-12T06:14:47.955Z,36.59
2018-10-12T06:14:47.967Z,36.59
2018-10-12T06:14:48.060Z,36.59
2018-10-12T06:20:42.860Z,54.18
2018-10-12T06:26:37.878Z,86.6
2018-10-12T06:32:32.836Z,64.16
2018-10-12T06:38:27.898Z,75.09
2018-10-12T06:44:22.840Z,76.33
2018-10-12T06:50:17.857Z,40.18
2018-10-12T06:56:12.855Z,31.39
2018-10-12T07:02:07.879Z,27.83
2018-10-12T07:08:02.854Z,32.86
2018-10-12T07:13:57.923Z,37.08
2018-10-12T07:19:52.883Z,33.75
2018-10-12T07:25:47.916Z,33.03
2018-10-12T07:31:42.853Z,29.65
2018-10-12T07:37:37.873Z,31.71
2018-10-12T07:43:32.890Z,34.51
2018-10-12T07:49:27.861Z,33.16
2018-10-12T07:55:22.857Z,35.04
2018-10-12T08:01:17.870Z,36.05
2018-10-12T08:07:12.880Z,36.8
2018-10-12T08:13:07.878Z,32.01
2018-10-12T08:19:02.886Z,35.76
2018-10-12T08:24:57.848Z,32.48
2018-10-12T08:30:52.859Z,33.89
2018-10-12T08:36:47.891Z,32.6
2018-10-12T08:42:42.866Z,29.38
2018-10-12T08:48:37.901Z,30.09
2018-10-12T08:54:32.876Z,28.42
2018-10-12T09:18:12.892Z,26.23
2018-10-12T09:18:13.025Z,33.11
2018-10-12T09:18:13.035Z,33.11
2018-10-12T09:18:13.065Z,33.11
2018-10-12T09:24:07.877Z,30.84
2018-10-12T09:30:02.899Z,23.87
2018-10-12T09:35:57.881Z,24.7
2018-10-12T09:41:52.859Z,22.58
2018-10-12T09:47:47.876Z,18.82
2018-10-12T09:53:42.979Z,18.32
2018-10-12T09:59:37.887Z,20.21
2018-10-12T10:05:32.933Z,16.97
2018-10-12T10:11:27.888Z,18.9
2018-10-12T10:17:22.893Z,16.91
2018-10-12T10:23:18.266Z,17.95
2018-10-12T10:29:12.945Z,18.9
2018-10-12T10:35:07.930Z,14.9
2018-10-12T10:41:02.890Z,21.47
2018-10-12T10:46:57.926Z,16
2018-10-12T10:52:52.948Z,18.36
2018-10-12T10:58:47.946Z,16.91
2018-10-12T11:04:42.913Z,20.73
2018-10-12T11:10:37.909Z,19.96
2018-10-12T11:16:32.971Z,18.4
2018-10-12T11:22:27.932Z,19.86
2018-10-12T11:28:22.960Z,16.14
2018-10-12T11:34:17.919Z,16.61
2018-10-12T11:40:12.943Z,16.09
2018-10-12T11:46:07.916Z,17.93
2018-10-12T11:52:03.028Z,18.07
2018-10-12T12:15:42.979Z,19.06
2018-10-12T12:15:42.989Z,14.59
2018-10-12T12:15:43.030Z,14.59
2018-10-12T12:15:43.038Z,14.59
2018-10-12T12:21:37.937Z,18.9
2018-10-12T12:27:32.942Z,16.86
2018-10-12T12:33:27.980Z,15.62
2018-10-12T12:39:22.968Z,14.57
2018-10-12T12:45:17.988Z,15.11
2018-10-12T12:51:12.995Z,13.96
2018-10-12T12:57:07.946Z,14.15
2018-10-12T13:03:03.038Z,16.14
2018-10-12T13:08:57.987Z,15.05
2018-10-12T13:14:52.980Z,15.09
2018-10-12T13:20:47.967Z,14.01
2018-10-12T13:26:42.960Z,16.02
2018-10-12T13:32:37.965Z,16.98
2018-10-12T13:38:32.969Z,13.15
2018-10-12T13:44:28.002Z,16.04
2018-10-12T13:50:22.982Z,15
2018-10-12T13:56:18.013Z,14.3
2018-10-12T14:02:13.021Z,16.33
2018-10-12T14:08:08.055Z,14.68
2018-10-12T14:14:03.073Z,13.95
2018-10-12T14:19:58.079Z,13.68
2018-10-12T14:25:53.004Z,18.72
2018-10-12T14:31:48.021Z,14.23
2018-10-12T14:37:43.047Z,13.82
2018-10-12T14:43:38.009Z,13.27
2018-10-12T14:49:33.074Z,17.23
2018-10-12T14:55:28.036Z,14.54
2018-10-12T15:19:08.035Z,18.56
2018-10-12T15:19:08.065Z,12.63
2018-10-12T15:19:08.067Z,12.63
2018-10-12T15:19:08.119Z,12.63
2018-10-12T15:25:03.015Z,16.19
2018-10-12T15:30:58.025Z,16.79
2018-10-12T15:36:53.010Z,17
2018-10-12T15:42:48.098Z,17.26
2018-10-12T15:48:43.018Z,18.9
2018-10-12T15:54:38.035Z,23.13
2018-10-12T16:00:33.036Z,21.68
2018-10-12T16:06:28.198Z,23.5
2018-10-12T16:12:23.016Z,21.66
2018-10-12T16:18:18.050Z,21.28
2018-10-12T16:24:13.073Z,19.73
2018-10-12T16:30:08.024Z,22.03
2018-10-12T16:36:03.057Z,19.68
2018-10-12T16:41:58.037Z,20.75
2018-10-12T16:47:53.056Z,23.54
2018-10-12T16:53:48.099Z,22.27
2018-10-12T16:59:43.059Z,16.59
2018-10-12T17:05:38.065Z,19.99
2018-10-12T17:11:33.061Z,19.29
2018-10-12T17:17:28.088Z,22.18
2018-10-12T17:23:23.123Z,18.52
2018-10-12T17:29:18.149Z,20.38
2018-10-12T17:35:13.056Z,20.23
2018-10-12T17:41:08.045Z,23.08
2018-10-12T17:47:03.061Z,19.81
2018-10-12T17:52:58.070Z,27.43
2018-10-12T18:16:38.056Z,21.08
2018-10-12T18:16:38.197Z,20.81
2018-10-12T18:16:38.208Z,20.81
2018-10-12T18:16:38.268Z,20.81
2018-10-12T18:22:33.066Z,25.72
2018-10-12T18:28:28.071Z,23.73
2018-10-12T18:34:23.083Z,25.74
2018-10-12T18:40:18.077Z,24.04
2018-10-12T19:03:58.085Z,20.52
2018-10-12T19:03:58.300Z,21.84
2018-10-12T19:03:58.302Z,21.84
2018-10-12T19:03:58.344Z,21.84
2018-10-12T19:09:53.092Z,20.21
2018-10-12T19:15:48.091Z,19.73
2018-10-12T19:57:13.468Z,19.49
2018-10-12T19:57:13.487Z,19.49
2018-10-12T19:57:13.507Z,19.49
2018-10-12T19:57:13.507Z,19.49
2018-10-12T19:57:13.555Z,19.49
2018-10-12T19:57:13.568Z,19.49
2018-10-12T19:57:13.588Z,19.49
2018-10-12T20:38:38.121Z,17.78
2018-10-12T20:38:38.213Z,16.39
2018-10-12T20:38:38.220Z,16.39
2018-10-12T20:38:38.254Z,16.39
2018-10-12T20:38:38.269Z,16.39
2018-10-12T20:38:38.296Z,16.39
2018-10-12T20:38:38.311Z,16.39
2018-10-12T20:44:33.109Z,17.49
2018-10-12T20:50:28.185Z,15.73
2018-10-12T20:56:23.121Z,16.72
2018-10-12T21:02:18.112Z,15.3
2018-10-12T21:08:13.123Z,16.82
2018-10-12T21:14:08.124Z,16.34
2018-10-12T21:20:03.123Z,16.29
2018-10-12T21:25:58.117Z,18.5
2018-10-12T21:31:53.144Z,20.64
2018-10-12T21:37:48.131Z,18.7
2018-10-12T21:55:33.137Z,16.86
2018-10-12T21:55:33.223Z,19.47
2018-10-12T21:55:33.255Z,19.47
2018-10-12T22:01:28.200Z,14.07
2018-10-12T22:07:23.186Z,17.12
2018-10-12T22:13:23.333Z,19.18
2018-10-12T22:19:13.155Z,17.12
2018-10-12T22:25:08.170Z,15.86
2018-10-12T22:31:03.150Z,13.03
2018-10-12T22:36:58.148Z,16.32
2018-10-12T23:00:38.132Z,22.01
2018-10-12T23:00:38.157Z,17.05
2018-10-12T23:00:38.185Z,17.05
2018-10-12T23:00:38.220Z,17.05
2018-10-12T23:06:33.133Z,17.18
2018-10-12T23:12:28.205Z,15.3
2018-10-12T23:36:08.169Z,16.55
2018-10-12T23:36:08.218Z,23.72
2018-10-12T23:36:08.240Z,23.72
2018-10-12T23:36:08.283Z,23.72
2018-10-12T23:42:03.126Z,23.32
2018-10-12T23:47:58.122Z,17.13
2018-10-12T23:53:53.128Z,21.19
